createdAt,value
2017-07-03T00:00:55.020Z,13.09
2017-07-03T00:01:55.317Z,13.09
2017-07-03T00:02:54.990Z,13.18
2017-07-03T00:03:54.981Z,13.09
2017-07-03T00:04:54.965Z,13.06
2017-07-03T00:05:54.962Z,13.06
2017-07-03T00:06:54.941Z,13.04
2017-07-03T00:07:55.245Z,13.09
2017-07-03T00:08:55.226Z,13.12
2017-07-03T00:09:55.218Z,13.06
2017-07-03T00:10:54.934Z,13.02
2017-07-03T00:11:54.870Z,13.03
2017-07-03T00:12:55.171Z,13.07
2017-07-03T00:13:54.844Z,12.99
2017-07-03T00:14:55.150Z,12.95
2017-07-03T00:15:54.814Z,12.84
2017-07-03T00:16:54.489Z,12.87
2017-07-03T00:17:54.793Z,12.92
2017-07-03T00:18:54.786Z,12.82
2017-07-03T00:19:54.454Z,12.85
2017-07-03T00:20:54.780Z,12.84
2017-07-03T00:21:54.748Z,12.79
2017-07-03T00:22:55.039Z,12.77
2017-07-03T00:23:55.022Z,12.74
2017-07-03T00:24:55.015Z,12.7
2017-07-03T00:25:54.682Z,12.66
2017-07-03T00:26:54.982Z,12.75
2017-07-03T00:27:54.657Z,12.71
2017-07-03T00:28:54.642Z,12.7
2017-07-03T00:29:54.944Z,12.67
2017-07-03T00:30:54.931Z,12.64
2017-07-03T00:31:54.910Z,12.66
2017-07-03T00:32:54.590Z,12.66
2017-07-03T00:33:54.571Z,12.7
2017-07-03T00:34:54.878Z,12.66
2017-07-03T00:35:54.864Z,12.57
2017-07-03T00:36:54.841Z,12.57
2017-07-03T00:37:54.517Z,12.45
2017-07-03T00:38:54.506Z,12.49
2017-07-03T00:39:54.494Z,12.49
2017-07-03T00:40:54.789Z,12.52
2017-07-03T00:41:54.774Z,12.49
2017-07-03T00:42:54.766Z,12.51
2017-07-03T00:43:54.772Z,12.44
2017-07-03T00:44:54.421Z,12.41
2017-07-03T00:45:54.408Z,12.42
2017-07-03T00:46:54.399Z,12.33
2017-07-03T00:47:54.379Z,12.33
2017-07-03T00:48:54.051Z,12.3
2017-07-03T00:49:54.670Z,12.24
2017-07-03T00:50:54.665Z,12.29
2017-07-03T00:51:54.647Z,12.23
2017-07-03T00:52:54.630Z,12.24
2017-07-03T00:53:53.989Z,12.27
2017-07-03T00:54:54.296Z,12.21
2017-07-03T00:55:54.271Z,12.26
2017-07-03T00:56:54.582Z,12.19
2017-07-03T00:57:54.587Z,12.16
2017-07-03T00:58:54.228Z,12.21
2017-07-03T00:59:54.531Z,12.16
2017-07-03T01:00:54.511Z,12.15
2017-07-03T01:01:54.184Z,12.19
2017-07-03T01:02:54.178Z,12.19
2017-07-03T01:03:54.474Z,12.2
2017-07-03T01:04:54.149Z,12.13
2017-07-03T01:05:54.129Z,12.11
2017-07-03T01:06:54.435Z,12.11
2017-07-03T01:07:54.103Z,12.02
2017-07-03T01:08:54.091Z,12.02
2017-07-03T01:09:54.076Z,12.12
2017-07-03T01:10:54.371Z,12.06
2017-07-03T01:11:54.361Z,12.01
2017-07-03T01:12:54.035Z,11.96
2017-07-03T01:13:54.018Z,11.96
2017-07-03T01:14:53.690Z,11.99
2017-07-03T01:15:53.676Z,11.99
2017-07-03T01:16:53.977Z,11.96
2017-07-03T01:17:54.273Z,11.94
2017-07-03T01:18:54.260Z,11.87
2017-07-03T01:19:53.619Z,11.85
2017-07-03T01:20:53.964Z,11.83
2017-07-03T01:21:54.214Z,11.82
2017-07-03T01:22:53.894Z,11.87
2017-07-03T01:23:54.194Z,11.78
2017-07-03T01:24:53.864Z,11.78
2017-07-03T01:25:53.537Z,11.87
2017-07-03T01:26:54.144Z,11.68
2017-07-03T01:27:54.134Z,11.82
2017-07-03T01:28:53.803Z,11.72
2017-07-03T01:29:54.103Z,11.7
2017-07-03T01:30:54.089Z,11.67
2017-07-03T01:31:54.076Z,11.7
2017-07-03T01:32:53.745Z,11.65
2017-07-03T01:33:54.046Z,11.64
2017-07-03T01:34:54.029Z,11.67
2017-07-03T01:35:53.709Z,11.57
2017-07-03T01:36:53.375Z,11.57
2017-07-03T01:37:53.993Z,11.52
2017-07-03T01:38:53.665Z,11.57
2017-07-03T01:39:53.959Z,11.56
2017-07-03T01:40:53.957Z,11.53
2017-07-03T01:41:53.614Z,11.49
2017-07-03T01:42:53.916Z,11.47
2017-07-03T01:43:53.898Z,11.47
2017-07-03T01:44:53.260Z,11.46
2017-07-03T01:45:53.557Z,11.49
2017-07-03T01:46:53.857Z,11.47
2017-07-03T01:47:53.534Z,11.59
2017-07-03T01:48:53.216Z,11.46
2017-07-03T01:49:53.189Z,11.47
2017-07-03T01:50:53.688Z,11.49
2017-07-03T01:51:53.478Z,11.56
2017-07-03T01:52:53.777Z,11.43
2017-07-03T01:53:53.135Z,11.47
2017-07-03T01:54:53.115Z,11.41
2017-07-03T01:55:53.107Z,11.39
2017-07-03T01:56:53.715Z,11.39
2017-07-03T01:57:53.694Z,11.39
2017-07-03T01:58:53.368Z,11.35
2017-07-03T01:59:53.673Z,11.35
2017-07-03T02:00:53.346Z,11.38
2017-07-03T02:01:53.329Z,11.36
2017-07-03T02:02:53.324Z,11.34
2017-07-03T02:03:52.993Z,11.32
2017-07-03T02:04:53.288Z,11.28
2017-07-03T02:05:53.585Z,11.36
2017-07-03T02:06:53.254Z,11.29
2017-07-03T02:07:53.556Z,11.31
2017-07-03T02:08:53.224Z,11.31
2017-07-03T02:09:53.557Z,11.32
2017-07-03T02:10:52.885Z,11.29
2017-07-03T02:11:53.189Z,11.29
2017-07-03T02:12:52.861Z,11.27
2017-07-03T02:13:53.468Z,11.25
2017-07-03T02:14:53.456Z,11.29
2017-07-03T02:15:53.440Z,11.32
2017-07-03T02:16:53.157Z,11.25
2017-07-03T02:17:53.095Z,11.19
2017-07-03T02:18:53.399Z,11.21
2017-07-03T02:19:52.751Z,11.24
2017-07-03T02:20:53.365Z,11.09
2017-07-03T02:21:53.038Z,11.13
2017-07-03T02:22:53.340Z,11.11
2017-07-03T02:23:53.358Z,11.1
2017-07-03T02:24:52.993Z,11.02
2017-07-03T02:25:52.977Z,11.11
2017-07-03T02:26:53.279Z,11.07
2017-07-03T02:27:52.950Z,11.14
2017-07-03T02:28:52.934Z,11.19
2017-07-03T02:29:52.605Z,11.19
2017-07-03T02:30:53.217Z,11.11
2017-07-03T02:31:52.892Z,11.1
2017-07-03T02:32:52.873Z,11.13
2017-07-03T02:33:52.863Z,11.19
2017-07-03T02:34:52.838Z,11.11
2017-07-03T02:35:52.830Z,11.11
2017-07-03T02:36:53.128Z,11.1
2017-07-03T02:37:53.114Z,11.07
2017-07-03T02:38:52.784Z,11.07
2017-07-03T02:39:52.771Z,11.01
2017-07-03T02:40:53.064Z,11.06
2017-07-03T02:41:52.738Z,11.01
2017-07-03T02:42:52.725Z,10.98
2017-07-03T02:43:52.714Z,10.98
2017-07-03T02:44:52.389Z,10.88
2017-07-03T02:45:52.682Z,10.96
2017-07-03T02:46:52.979Z,10.86
2017-07-03T02:47:52.966Z,10.88
2017-07-03T02:48:52.634Z,10.91
2017-07-03T02:49:52.622Z,10.86
2017-07-03T02:50:52.915Z,10.84
2017-07-03T02:51:52.589Z,10.88
2017-07-03T02:52:52.623Z,10.88
2017-07-03T02:53:52.560Z,10.86
2017-07-03T02:54:52.544Z,10.83
2017-07-03T02:55:52.839Z,10.83
2017-07-03T02:56:52.829Z,10.81
2017-07-03T02:57:52.504Z,10.83
2017-07-03T02:58:52.495Z,10.83
2017-07-03T02:59:52.784Z,10.81
2017-07-03T03:00:52.768Z,10.83
2017-07-03T03:01:52.445Z,10.8
2017-07-03T03:02:52.112Z,10.8
2017-07-03T03:03:52.409Z,10.74
2017-07-03T03:04:52.393Z,10.78
2017-07-03T03:05:52.065Z,10.77
2017-07-03T03:06:52.367Z,10.78
2017-07-03T03:07:52.350Z,10.74
2017-07-03T03:08:52.650Z,10.83
2017-07-03T03:09:52.630Z,10.74
2017-07-03T03:10:52.308Z,10.74
2017-07-03T03:11:52.604Z,10.78
2017-07-03T03:12:52.272Z,10.68
2017-07-03T03:13:52.580Z,10.7
2017-07-03T03:14:52.244Z,10.7
2017-07-03T03:15:51.914Z,10.78
2017-07-03T03:16:52.524Z,10.73
2017-07-03T03:17:52.200Z,10.73
2017-07-03T03:18:52.182Z,10.7
2017-07-03T03:19:51.852Z,10.76
2017-07-03T03:20:52.465Z,10.73
2017-07-03T03:21:52.447Z,10.71
2017-07-03T03:22:52.124Z,10.7
2017-07-03T03:23:51.796Z,10.7
2017-07-03T03:24:52.402Z,10.65
2017-07-03T03:25:52.389Z,10.62
2017-07-03T03:26:52.060Z,10.76
2017-07-03T03:27:52.049Z,10.71
2017-07-03T03:28:52.348Z,10.73
2017-07-03T03:29:51.707Z,10.74
2017-07-03T03:30:52.314Z,10.63
2017-07-03T03:31:51.990Z,10.71
2017-07-03T03:32:52.283Z,10.66
2017-07-03T03:33:51.953Z,10.71
2017-07-03T03:34:51.936Z,10.7
2017-07-03T03:35:51.923Z,10.65
2017-07-03T03:36:51.594Z,10.76
2017-07-03T03:37:51.896Z,10.71
2017-07-03T03:38:51.881Z,10.66
2017-07-03T03:39:52.181Z,10.68
2017-07-03T03:40:52.162Z,10.63
2017-07-03T03:41:51.840Z,10.73
2017-07-03T03:42:51.819Z,10.7
2017-07-03T03:43:51.803Z,10.62
2017-07-03T03:44:51.808Z,10.71
2017-07-03T03:45:52.084Z,10.76
2017-07-03T03:46:52.069Z,10.77
2017-07-03T03:47:51.479Z,10.68
2017-07-03T03:48:51.414Z,10.7
2017-07-03T03:49:51.711Z,10.74
2017-07-03T03:50:51.900Z,10.8
2017-07-03T03:51:51.688Z,10.8
2017-07-03T03:52:51.667Z,10.83
2017-07-03T03:53:51.963Z,10.81
2017-07-03T03:54:51.638Z,10.83
2017-07-03T03:55:51.936Z,10.77
2017-07-03T03:56:51.671Z,10.83
2017-07-03T03:57:51.592Z,10.8
2017-07-03T03:58:51.572Z,10.78
2017-07-03T03:59:51.882Z,10.78
2017-07-03T04:00:51.863Z,10.84
2017-07-03T04:01:51.533Z,10.78
2017-07-03T04:02:51.518Z,10.98
2017-07-03T04:03:51.501Z,10.84
2017-07-03T04:04:51.801Z,10.99
2017-07-03T04:05:51.788Z,10.98
2017-07-03T04:06:51.768Z,10.99
2017-07-03T04:07:51.447Z,11.03
2017-07-03T04:08:51.740Z,11.06
2017-07-03T04:09:51.723Z,11.09
2017-07-03T04:10:51.719Z,11.17
2017-07-03T04:11:51.379Z,11.1
2017-07-03T04:12:51.680Z,11.13
2017-07-03T04:13:51.359Z,11.17
2017-07-03T04:14:51.331Z,11.19
2017-07-03T04:15:51.321Z,11.21
2017-07-03T04:16:51.324Z,11.32
2017-07-03T04:17:51.288Z,11.35
2017-07-03T04:18:51.589Z,11.31
2017-07-03T04:19:50.952Z,11.29
2017-07-03T04:20:51.562Z,11.28
2017-07-03T04:21:51.230Z,11.25
2017-07-03T04:22:51.526Z,11.29
2017-07-03T04:23:51.207Z,11.31
2017-07-03T04:24:51.190Z,11.27
2017-07-03T04:25:51.169Z,11.35
2017-07-03T04:26:51.470Z,11.34
2017-07-03T04:27:51.450Z,11.43
2017-07-03T04:28:51.126Z,11.43
2017-07-03T04:29:51.107Z,11.5
2017-07-03T04:30:51.413Z,11.59
2017-07-03T04:31:51.082Z,11.56
2017-07-03T04:32:51.406Z,11.52
2017-07-03T04:33:51.051Z,11.56
2017-07-03T04:34:51.349Z,11.52
2017-07-03T04:35:51.023Z,11.52
2017-07-03T04:36:51.325Z,11.57
2017-07-03T04:37:51.312Z,11.56
2017-07-03T04:38:51.297Z,11.62
2017-07-03T04:39:50.658Z,11.62
2017-07-03T04:40:50.637Z,11.64
2017-07-03T04:41:51.250Z,11.65
2017-07-03T04:42:50.917Z,11.65
2017-07-03T04:43:50.905Z,11.68
2017-07-03T04:44:50.891Z,11.71
2017-07-03T04:45:50.877Z,11.75
2017-07-03T04:46:51.182Z,11.83
2017-07-03T04:47:51.170Z,11.78
2017-07-03T04:48:50.526Z,11.82
2017-07-03T04:49:50.819Z,11.72
2017-07-03T04:50:51.123Z,11.87
2017-07-03T04:51:50.796Z,11.93
2017-07-03T04:52:50.467Z,11.96
2017-07-03T04:53:51.178Z,11.94
2017-07-03T04:54:50.757Z,11.9
2017-07-03T04:55:50.739Z,11.99
2017-07-03T04:56:50.718Z,11.99
2017-07-03T04:57:51.022Z,11.99
2017-07-03T04:58:51.004Z,12.08
2017-07-03T04:59:50.992Z,12.12
2017-07-03T05:00:50.357Z,12.13
2017-07-03T05:01:50.957Z,12.19
2017-07-03T05:02:50.327Z,12.21
2017-07-03T05:03:50.937Z,12.24
2017-07-03T05:04:50.604Z,12.21
2017-07-03T05:05:50.911Z,12.41
2017-07-03T05:06:50.264Z,12.45
2017-07-03T05:07:50.571Z,12.38
2017-07-03T05:08:50.554Z,12.46
2017-07-03T05:09:50.536Z,12.44
2017-07-03T05:10:50.520Z,12.42
2017-07-03T05:11:50.508Z,12.52
2017-07-03T05:12:50.808Z,12.64
2017-07-03T05:13:50.791Z,12.59
2017-07-03T05:14:50.463Z,12.71
2017-07-03T05:15:50.760Z,12.74
2017-07-03T05:16:50.748Z,12.75
2017-07-03T05:17:50.736Z,12.88
2017-07-03T05:18:50.723Z,12.87
2017-07-03T05:19:50.399Z,12.88
2017-07-03T05:20:50.748Z,12.96
2017-07-03T05:21:50.368Z,12.99
2017-07-03T05:22:50.662Z,13.07
2017-07-03T05:23:50.372Z,13.14
2017-07-03T05:24:50.331Z,13.07
2017-07-03T05:25:50.312Z,13.22
2017-07-03T05:26:50.612Z,13.24
2017-07-03T05:27:50.285Z,13.27
2017-07-03T05:28:50.277Z,13.25
2017-07-03T05:29:50.580Z,13.3
2017-07-03T05:30:50.563Z,13.4
2017-07-03T05:31:50.235Z,13.38
2017-07-03T05:32:50.532Z,13.52
2017-07-03T05:33:50.208Z,13.52
2017-07-03T05:34:50.188Z,13.61
2017-07-03T05:35:50.176Z,13.58
2017-07-03T05:36:49.849Z,13.62
2017-07-03T05:37:50.148Z,13.79
2017-07-03T05:38:50.494Z,13.84
2017-07-03T05:39:50.119Z,13.79
2017-07-03T05:40:50.421Z,13.76
2017-07-03T05:41:50.402Z,13.91
2017-07-03T05:42:50.396Z,13.81
2017-07-03T05:43:50.379Z,13.87
2017-07-03T05:44:50.356Z,13.89
2017-07-03T05:45:50.349Z,13.95
2017-07-03T05:46:50.341Z,13.96
2017-07-03T05:47:50.328Z,13.94
2017-07-03T05:48:50.317Z,14.06
2017-07-03T05:49:50.296Z,14.12
2017-07-03T05:50:50.492Z,14.14
2017-07-03T05:51:49.642Z,14.12
2017-07-03T05:52:49.944Z,14.16
2017-07-03T05:53:49.939Z,14.24
2017-07-03T05:54:50.231Z,14.28
2017-07-03T05:55:50.220Z,14.29
2017-07-03T05:56:50.204Z,14.28
2017-07-03T05:57:49.876Z,14.37
2017-07-03T05:58:50.178Z,14.31
2017-07-03T05:59:50.168Z,14.34
2017-07-03T06:00:49.525Z,14.44
2017-07-03T06:01:49.539Z,14.49
2017-07-03T06:02:49.810Z,14.5
2017-07-03T06:03:50.120Z,14.49
2017-07-03T06:04:49.787Z,14.49
2017-07-03T06:05:49.775Z,14.6
2017-07-03T06:06:49.763Z,14.53
2017-07-03T06:07:49.751Z,14.52
2017-07-03T06:08:49.798Z,14.62
2017-07-03T06:09:49.717Z,14.68
2017-07-03T06:10:49.718Z,14.8
2017-07-03T06:11:49.381Z,14.75
2017-07-03T06:12:49.366Z,14.81
2017-07-03T06:13:49.413Z,14.78
2017-07-03T06:14:49.661Z,14.93
2017-07-03T06:15:49.957Z,14.95
2017-07-03T06:16:49.941Z,14.93
2017-07-03T06:17:49.927Z,14.99
2017-07-03T06:18:49.607Z,15.05
2017-07-03T06:19:49.281Z,15.12
2017-07-03T06:20:49.583Z,15.56
2017-07-03T06:21:49.566Z,16.15
2017-07-03T06:22:49.560Z,17.1
2017-07-03T06:23:49.239Z,17.88
2017-07-03T06:24:49.539Z,18.12
2017-07-03T06:25:49.882Z,17.85
2017-07-03T06:26:49.510Z,17.55
2017-07-03T06:27:49.501Z,17.14
2017-07-03T06:28:49.809Z,16.96
2017-07-03T06:29:49.482Z,16.85
2017-07-03T06:30:49.465Z,16.55
2017-07-03T06:31:49.771Z,16.42
2017-07-03T06:32:49.444Z,16.38
2017-07-03T06:33:49.487Z,16.34
2017-07-03T06:34:49.112Z,16.3
2017-07-03T06:35:49.416Z,16.22
2017-07-03T06:36:49.450Z,16.2
2017-07-03T06:37:49.703Z,16.15
2017-07-03T06:38:49.732Z,16.11
2017-07-03T06:39:49.680Z,16.07
2017-07-03T06:40:49.358Z,16.07
2017-07-03T06:41:49.031Z,16.11
2017-07-03T06:42:49.337Z,16.04
2017-07-03T06:43:49.063Z,16.09
2017-07-03T06:44:49.314Z,16.15
2017-07-03T06:45:49.612Z,16.09
2017-07-03T06:46:49.657Z,16.12
2017-07-03T06:47:49.275Z,16.11
2017-07-03T06:48:49.265Z,16.18
2017-07-03T06:49:49.567Z,16.16
2017-07-03T06:50:49.244Z,16.25
2017-07-03T06:51:49.270Z,16.37
2017-07-03T06:52:49.530Z,16.81
2017-07-03T06:53:48.903Z,17.7
2017-07-03T06:54:49.623Z,18.82
2017-07-03T06:55:49.503Z,19.78
2017-07-03T06:56:48.863Z,20.56
2017-07-03T06:57:48.858Z,21.45
2017-07-03T06:58:49.163Z,22.1
2017-07-03T06:59:49.150Z,22.68
2017-07-03T07:00:49.452Z,23.19
2017-07-03T07:01:48.821Z,23.58
2017-07-03T07:02:49.462Z,23.47
2017-07-03T07:03:49.427Z,23.52
2017-07-03T07:04:49.103Z,23.68
2017-07-03T07:05:49.097Z,23.94
2017-07-03T07:06:49.395Z,24.08
2017-07-03T07:07:49.387Z,24.47
2017-07-03T07:08:48.759Z,24.59
2017-07-03T07:09:49.054Z,24.6
2017-07-03T07:10:49.394Z,24.67
2017-07-03T07:11:49.046Z,24.52
2017-07-03T07:12:49.020Z,24.52
2017-07-03T07:13:49.324Z,24.5
2017-07-03T07:14:49.005Z,24.61
2017-07-03T07:15:49.313Z,24.63
2017-07-03T07:16:48.987Z,24.82
2017-07-03T07:17:48.974Z,24.94
2017-07-03T07:18:49.285Z,24.91
2017-07-03T07:19:49.275Z,24.92
2017-07-03T07:20:48.951Z,25.06
2017-07-03T07:21:48.953Z,25.12
2017-07-03T07:22:49.249Z,25.2
2017-07-03T07:23:48.930Z,25.43
2017-07-03T07:24:48.923Z,25.74
2017-07-03T07:25:49.227Z,25.91
2017-07-03T07:26:49.218Z,26.06
2017-07-03T07:27:48.589Z,25.61
2017-07-03T07:28:49.213Z,25.31
2017-07-03T07:29:48.909Z,25.37
2017-07-03T07:30:49.231Z,25.42
2017-07-03T07:31:48.884Z,25.35
2017-07-03T07:32:48.881Z,25.37
2017-07-03T07:33:48.555Z,25.31
2017-07-03T07:34:48.867Z,25.32
2017-07-03T07:35:48.859Z,25.17
2017-07-03T07:36:48.908Z,25.02
2017-07-03T07:37:48.852Z,25.19
2017-07-03T07:38:49.159Z,25.13
2017-07-03T07:39:49.199Z,25.19
2017-07-03T07:40:48.835Z,25.32
2017-07-03T07:41:48.831Z,25.43
2017-07-03T07:42:48.837Z,25.65
2017-07-03T07:43:49.145Z,26.04
2017-07-03T07:44:48.822Z,26.25
2017-07-03T07:45:48.824Z,26.52
2017-07-03T07:46:49.132Z,26.54
2017-07-03T07:47:48.812Z,25.91
2017-07-03T07:48:49.127Z,25.84
2017-07-03T07:49:48.544Z,25.79
2017-07-03T07:50:49.323Z,25.91
2017-07-03T07:51:48.803Z,26.32
2017-07-03T07:52:49.121Z,26.58
2017-07-03T07:53:48.805Z,26.73
2017-07-03T07:54:49.111Z,26.69
2017-07-03T07:55:48.792Z,26.73
2017-07-03T07:56:49.099Z,26.46
2017-07-03T07:57:48.476Z,26.36
2017-07-03T07:58:48.785Z,26.35
2017-07-03T07:59:48.783Z,26.43
2017-07-03T08:00:48.484Z,26.69
2017-07-03T08:01:48.781Z,26.68
2017-07-03T08:02:49.086Z,26.67
2017-07-03T08:03:48.771Z,26.68
2017-07-03T08:04:48.772Z,26.58
2017-07-03T08:05:49.084Z,26.73
2017-07-03T08:06:48.769Z,26.98
2017-07-03T08:07:48.459Z,26.92
2017-07-03T08:08:49.082Z,26.74
2017-07-03T08:09:48.821Z,26.67
2017-07-03T08:10:48.448Z,26.86
2017-07-03T08:11:49.077Z,27.1
2017-07-03T08:12:49.076Z,26.98
2017-07-03T08:13:48.766Z,26.72
2017-07-03T08:14:48.754Z,26.69
2017-07-03T08:15:48.751Z,26.35
2017-07-03T08:16:48.752Z,26.42
2017-07-03T08:17:48.751Z,26.57
2017-07-03T08:18:48.753Z,26.83
2017-07-03T08:19:48.752Z,27.1
2017-07-03T08:20:48.747Z,27.09
2017-07-03T08:21:48.745Z,27.21
2017-07-03T08:22:48.457Z,27.28
2017-07-03T08:23:48.746Z,26.94
2017-07-03T08:24:48.742Z,26.81
2017-07-03T08:25:48.436Z,27.16
2017-07-03T08:26:48.738Z,26.76
2017-07-03T08:27:49.051Z,27.05
2017-07-03T08:28:48.738Z,27.11
2017-07-03T08:29:48.426Z,27.01
2017-07-03T08:30:48.747Z,26.92
2017-07-03T08:31:49.045Z,27.06
2017-07-03T08:32:48.736Z,27.01
2017-07-03T08:33:49.044Z,27.2
2017-07-03T08:34:49.046Z,27.35
2017-07-03T08:35:48.730Z,27.26
2017-07-03T08:36:49.050Z,27.2
2017-07-03T08:37:48.425Z,26.98
2017-07-03T08:38:48.735Z,27.11
2017-07-03T08:39:48.730Z,27.11
2017-07-03T08:40:49.052Z,27.17
2017-07-03T08:41:49.051Z,27.47
2017-07-03T08:42:48.732Z,27.74
2017-07-03T08:43:49.051Z,27.94
2017-07-03T08:44:49.049Z,28.25
2017-07-03T08:45:48.426Z,28.04
2017-07-03T08:46:48.417Z,27.39
2017-07-03T08:47:48.737Z,27.24
2017-07-03T08:48:49.056Z,27.17
2017-07-03T08:49:49.052Z,27.19
2017-07-03T08:50:48.744Z,26.81
2017-07-03T08:51:48.748Z,26.42
2017-07-03T08:52:49.048Z,25.77
2017-07-03T08:53:48.422Z,25.43
2017-07-03T08:54:49.046Z,25.53
2017-07-03T08:55:48.735Z,25.05
2017-07-03T08:56:49.049Z,24.39
2017-07-03T08:57:49.044Z,23.95
2017-07-03T08:58:48.732Z,23.64
2017-07-03T08:59:49.039Z,23.47
2017-07-03T09:00:49.085Z,23.23
2017-07-03T09:01:48.725Z,23.32
2017-07-03T09:02:48.712Z,23.49
2017-07-03T09:03:48.722Z,23.65
2017-07-03T09:04:49.019Z,23.62
2017-07-03T09:05:49.013Z,23.27
2017-07-03T09:06:49.030Z,22.93
2017-07-03T09:07:48.384Z,22.77
2017-07-03T09:08:48.693Z,22.59
2017-07-03T09:09:48.685Z,22.46
2017-07-03T09:10:49.005Z,22.34
2017-07-03T09:11:48.677Z,22.34
2017-07-03T09:12:48.362Z,22.19
2017-07-03T09:13:48.670Z,22.16
2017-07-03T09:14:48.984Z,22.22
2017-07-03T09:15:48.973Z,22.25
2017-07-03T09:16:48.657Z,22.41
2017-07-03T09:17:48.971Z,22.72
2017-07-03T09:18:48.658Z,23.29
2017-07-03T09:19:48.332Z,23.72
2017-07-03T09:20:48.961Z,24.13
2017-07-03T09:21:48.955Z,24.49
2017-07-03T09:22:48.687Z,24.82
2017-07-03T09:23:48.950Z,25.05
2017-07-03T09:24:48.638Z,25.09
2017-07-03T09:25:48.943Z,25.22
2017-07-03T09:26:48.943Z,25.43
2017-07-03T09:27:48.949Z,25.59
2017-07-03T09:28:48.944Z,26.02
2017-07-03T09:29:48.316Z,26.35
2017-07-03T09:30:48.628Z,26.5
2017-07-03T09:31:48.939Z,26.81
2017-07-03T09:32:48.936Z,26.95
2017-07-03T09:33:48.632Z,26.99
2017-07-03T09:34:48.941Z,27.17
2017-07-03T09:35:48.945Z,27.17
2017-07-03T09:36:48.936Z,27.31
2017-07-03T09:37:48.314Z,27.47
2017-07-03T09:38:48.941Z,27.57
2017-07-03T09:39:48.628Z,27.17
2017-07-03T09:40:48.943Z,26.74
2017-07-03T09:41:48.631Z,26.72
2017-07-03T09:42:48.675Z,26.58
2017-07-03T09:43:48.636Z,26.37
2017-07-03T09:44:48.638Z,25.71
2017-07-03T09:45:48.630Z,25.5
2017-07-03T09:46:48.324Z,25.46
2017-07-03T09:47:48.637Z,25.57
2017-07-03T09:48:48.330Z,25.32
2017-07-03T09:49:48.954Z,25.3
2017-07-03T09:50:49.073Z,25.3
2017-07-03T09:51:48.335Z,25.43
2017-07-03T09:52:48.646Z,25.72
2017-07-03T09:53:48.956Z,25.71
2017-07-03T09:54:48.967Z,25.54
2017-07-03T09:55:48.969Z,25.34
2017-07-03T09:56:48.962Z,25.47
2017-07-03T09:57:48.342Z,25.57
2017-07-03T09:58:48.653Z,25.74
2017-07-03T09:59:48.970Z,26.02
2017-07-03T10:00:48.982Z,26.35
2017-07-03T10:01:48.972Z,26.72
2017-07-03T10:02:48.349Z,26.87
2017-07-03T10:03:48.976Z,26.86
2017-07-03T10:04:48.664Z,26.96
2017-07-03T10:05:48.985Z,27.11
2017-07-03T10:06:48.988Z,27.04
2017-07-03T10:07:48.751Z,27.1
2017-07-03T10:08:48.679Z,27.28
2017-07-03T10:09:48.677Z,27.2
2017-07-03T10:10:48.685Z,27.14
2017-07-03T10:11:48.680Z,27.29
2017-07-03T10:12:48.704Z,27.29
2017-07-03T10:13:49.005Z,26.98
2017-07-03T10:14:48.690Z,26.86
2017-07-03T10:15:48.380Z,26.72
2017-07-03T10:16:49.011Z,26.76
2017-07-03T10:17:49.015Z,26.37
2017-07-03T10:18:48.425Z,26.32
2017-07-03T10:19:48.701Z,26.37
2017-07-03T10:20:49.019Z,26.62
2017-07-03T10:21:48.393Z,26.72
2017-07-03T10:22:48.711Z,26.72
2017-07-03T10:23:49.073Z,26.65
2017-07-03T10:24:48.715Z,26.87
2017-07-03T10:25:48.723Z,26.98
2017-07-03T10:26:49.035Z,27.29
2017-07-03T10:27:48.729Z,27.66
2017-07-03T10:28:48.737Z,27.71
2017-07-03T10:29:48.419Z,27.86
2017-07-03T10:30:48.426Z,28.06
2017-07-03T10:31:48.736Z,28.31
2017-07-03T10:32:48.738Z,28.22
2017-07-03T10:33:49.075Z,28.1
2017-07-03T10:34:48.436Z,27.99
2017-07-03T10:35:48.750Z,28.01
2017-07-03T10:36:48.748Z,27.94
2017-07-03T10:37:49.074Z,27.82
2017-07-03T10:38:49.076Z,27.47
2017-07-03T10:39:48.759Z,27.33
2017-07-03T10:40:49.083Z,27.51
2017-07-03T10:41:48.456Z,27.7
2017-07-03T10:42:48.768Z,27.73
2017-07-03T10:43:48.771Z,27.89
2017-07-03T10:44:48.786Z,28.03
2017-07-03T10:45:48.783Z,28.1
2017-07-03T10:46:48.806Z,28.04
2017-07-03T10:47:48.792Z,27.61
2017-07-03T10:48:49.104Z,27.77
2017-07-03T10:49:48.794Z,27.98
2017-07-03T10:50:48.486Z,28.26
2017-07-03T10:51:49.112Z,28.33
2017-07-03T10:52:48.803Z,27.77
2017-07-03T10:53:48.810Z,27.7
2017-07-03T10:54:48.815Z,27.74
2017-07-03T10:55:48.814Z,27.71
2017-07-03T10:56:49.130Z,27.67
2017-07-03T10:57:48.515Z,27.91
2017-07-03T10:58:48.824Z,28.4
2017-07-03T10:59:49.145Z,28.53
2017-07-03T11:00:49.143Z,28.44
2017-07-03T11:01:48.853Z,28.62
2017-07-03T11:02:48.526Z,28.82
2017-07-03T11:03:49.151Z,28.82
2017-07-03T11:04:48.845Z,28.91
2017-07-03T11:05:48.533Z,28.84
2017-07-03T11:06:49.173Z,28.75
2017-07-03T11:07:48.854Z,28.36
2017-07-03T11:08:48.865Z,28.62
2017-07-03T11:09:48.894Z,28.47
2017-07-03T11:10:49.180Z,28.38
2017-07-03T11:11:48.867Z,28.48
2017-07-03T11:12:48.868Z,28.31
2017-07-03T11:13:48.874Z,28.41
2017-07-03T11:14:48.567Z,28.46
2017-07-03T11:15:49.203Z,28.4
2017-07-03T11:16:48.574Z,28.53
2017-07-03T11:17:48.576Z,28.44
2017-07-03T11:18:48.907Z,28.51
2017-07-03T11:19:48.898Z,28.41
2017-07-03T11:20:48.592Z,28.31
2017-07-03T11:21:49.229Z,28.47
2017-07-03T11:22:48.920Z,28.21
2017-07-03T11:23:49.229Z,28.07
2017-07-03T11:24:48.922Z,27.96
2017-07-03T11:25:49.232Z,28.1
2017-07-03T11:26:48.924Z,28.35
2017-07-03T11:27:49.242Z,28.54
2017-07-03T11:28:49.301Z,28.43
2017-07-03T11:29:48.622Z,28.36
2017-07-03T11:30:49.302Z,27.88
2017-07-03T11:31:48.940Z,27.88
2017-07-03T11:32:48.943Z,28.25
2017-07-03T11:33:48.951Z,28.29
2017-07-03T11:34:48.954Z,28.23
2017-07-03T11:35:48.958Z,28.13
2017-07-03T11:36:48.957Z,27.86
2017-07-03T11:37:48.659Z,27.73
2017-07-03T11:38:49.042Z,27.7
2017-07-03T11:39:49.285Z,27.86
2017-07-03T11:40:49.283Z,27.99
2017-07-03T11:41:48.665Z,27.99
2017-07-03T11:42:48.982Z,27.91
2017-07-03T11:43:48.985Z,27.91
2017-07-03T11:44:48.988Z,28.06
2017-07-03T11:45:48.681Z,28.32
2017-07-03T11:46:48.992Z,28.35
2017-07-03T11:47:49.308Z,28.25
2017-07-03T11:48:49.316Z,28.38
2017-07-03T11:49:48.694Z,28.54
2017-07-03T11:50:48.904Z,28.66
2017-07-03T11:51:49.379Z,28.7
2017-07-03T11:52:49.339Z,28.78
2017-07-03T11:53:49.026Z,29.03
2017-07-03T11:54:49.030Z,28.93
2017-07-03T11:55:49.341Z,29.01
2017-07-03T11:56:48.719Z,28.9
2017-07-03T11:57:49.039Z,28.53
2017-07-03T11:58:49.351Z,28.56
2017-07-03T11:59:49.049Z,28.73
2017-07-03T12:00:49.045Z,28.97
2017-07-03T12:01:48.742Z,29.1
2017-07-03T12:02:49.055Z,29.31
2017-07-03T12:03:49.063Z,29.4
2017-07-03T12:04:49.070Z,28.87
2017-07-03T12:05:49.082Z,28.87
2017-07-03T12:06:48.762Z,28.96
2017-07-03T12:07:49.074Z,29.18
2017-07-03T12:08:49.085Z,29.03
2017-07-03T12:09:49.397Z,28.91
2017-07-03T12:10:48.787Z,28.85
2017-07-03T12:11:49.085Z,29.19
2017-07-03T12:12:49.142Z,29.16
2017-07-03T12:13:49.096Z,29.41
2017-07-03T12:14:49.416Z,29.38
2017-07-03T12:15:49.109Z,29.49
2017-07-03T12:16:49.110Z,29.53
2017-07-03T12:17:49.427Z,28.97
2017-07-03T12:18:49.430Z,28.7
2017-07-03T12:19:48.803Z,28.88
2017-07-03T12:20:49.435Z,29.18
2017-07-03T12:21:49.159Z,29.01
2017-07-03T12:22:49.123Z,29.2
2017-07-03T12:23:49.151Z,29.34
2017-07-03T12:24:48.821Z,29.56
2017-07-03T12:25:49.455Z,29.77
2017-07-03T12:26:49.168Z,29.82
2017-07-03T12:27:48.834Z,29.99
2017-07-03T12:28:49.470Z,30.24
2017-07-03T12:29:49.467Z,30.16
2017-07-03T12:30:49.477Z,29.94
2017-07-03T12:31:49.476Z,29.89
2017-07-03T12:32:49.483Z,29.7
2017-07-03T12:33:49.172Z,29.37
2017-07-03T12:34:49.491Z,29.37
2017-07-03T12:35:49.186Z,28.96
2017-07-03T12:36:49.193Z,28.96
2017-07-03T12:37:49.234Z,29.13
2017-07-03T12:38:48.879Z,29.4
2017-07-03T12:39:49.197Z,29.49
2017-07-03T12:40:49.205Z,28.88
2017-07-03T12:41:49.533Z,28.69
2017-07-03T12:42:49.612Z,28.35
2017-07-03T12:43:49.532Z,27.96
2017-07-03T12:44:48.908Z,27.86
2017-07-03T12:45:49.221Z,28.09
2017-07-03T12:46:49.225Z,28.32
2017-07-03T12:47:49.539Z,28.16
2017-07-03T12:48:49.230Z,27.98
2017-07-03T12:49:48.921Z,27.86
2017-07-03T12:50:48.923Z,27.71
2017-07-03T12:51:49.249Z,27.47
2017-07-03T12:52:49.285Z,27.2
2017-07-03T12:53:49.242Z,26.87
2017-07-03T12:54:49.561Z,26.69